• Join FlightAware (Why Join?)
  • Login
  • US Flag 
08:52AM EDT


 

Airport Tracker/Info


-or-


 

Live Flight TrackerFlight Track Log ✈ UAL3773 ✈ 16-Apr-2013 ✈ KCLT - KIAD

Flight Track Log - Related Links

Times and Time Zones

All times are in EDT time to prevent confusion due to time zone crossing. See the UAL3773 flight status page for this flight to view local times or setup timezone preferences in your user account.

Time Position Orientation Groundspeed Altitude Reporting Facility
EDT Latitude Longitude Course Direction KTS MPH feet Rate Location/Type
10:25AM 35.1969 -80.9356 72° East 147 169 1,300  Level Atlanta Center
10:26AM 35.1511 -80.9294 174° South 191 220 2,900 2,160 Climbing Atlanta Center
10:27AM 35.0950 -80.8581 134° Southeast 284 327 5,800 2,820 Climbing Atlanta Center
10:28AM 35.2248 -80.5490 30° Northeast  Level FlightAware Approximate
10:28AM 35.1053 -80.7764 81° East 288 331 8,700  Level Atlanta Center
10:28AM 35.1231 -80.7375 61° Northeast 289 333 9,500 2,220 Climbing Atlanta Center
10:29AM 35.3167 -80.4729 90° East  Level FlightAware Approximate
10:29AM 35.1489 -80.6933 54° Northeast 296 341 11,000  Level Atlanta Center
10:29AM 35.1647 -80.6572 62° Northeast 322 371 11,500 1,920 Climbing Atlanta Center
10:30AM 35.3620 -80.3581 72° East  Level FlightAware Approximate
10:30AM 35.2183 -80.5583 56° Northeast 335 386 13,900  Level Atlanta Center
10:32AM 35.3519 -80.3006 58° Northeast 387 445 18,100 1,740 Climbing Washington Center
10:33AM 35.4147 -80.1847 56° Northeast 393 452 19,800 1,740 Climbing Washington Center
10:34AM 35.4575 -80.0494 69° East 403 464 21,600 1,560 Climbing Washington Center
10:35AM 35.4939 -79.9111 72° East 413 475 23,000 1,500 Climbing Washington Center
10:36AM 35.5306 -79.7625 73° East 432 497 24,700 1,380 Climbing Washington Center
10:37AM 35.5689 -79.6139 72° East 438 504 25,800 1,140 Climbing Washington Center
10:38AM 35.6075 -79.4600 73° East 456 525 27,000 600 Climbing Washington Center
10:39AM 35.6761 -79.3303 57° Northeast 462 532 27,000  Level Washington Center
10:40AM 35.7917 -79.2411 32° Northeast 450 518 27,000  Level Washington Center
10:41AM 35.9050 -79.1514 33° Northeast 463 533 27,000  Level Washington Center
10:42AM 36.0161 -79.0639 32° Northeast 469 540 27,000  Level Washington Center
10:43AM 36.1292 -78.9736 33° Northeast 482 555 27,000  Level Washington Center
10:44AM 36.2400 -78.8858 33° Northeast 482 555 27,000  Level Washington Center
10:45AM 36.3531 -78.7953 33° Northeast 477 549 27,000  Level Washington Center
10:46AM 36.4661 -78.7042 33° Northeast 477 549 27,000  Level Washington Center
10:47AM 36.5769 -78.6128 34° Northeast 477 549 27,000  Level Washington Center
10:48AM 36.6900 -78.5189 34° Northeast 477 549 27,000  Level Washington Center
10:49AM 36.7983 -78.4322 33° Northeast 472 543 27,000  Level Washington Center
10:50AM 36.9069 -78.3453 33° Northeast 472 543 27,000  Level Washington Center
10:51AM 37.0047 -78.2603 35° Northeast 472 543 27,000  Level Washington Center
10:52AM 37.1236 -78.1628 33° Northeast 472 543 27,000  Level Washington Center
10:53AM 37.2319 -78.0753 33° Northeast 466 536 27,000  Level Washington Center
10:54AM 37.3400 -77.9872 33° Northeast 466 536 27,000  Level Washington Center
10:55AM 37.4503 -77.8967 33° Northeast 466 536 27,000  Level Washington Center
10:56AM 37.5606 -77.8081 32° Northeast 472 543 27,000 -600 Level Washington Center
10:57AM 37.6764 -77.7433 24° Northeast 467 537 25,800 -2,520 Descending Washington Center
10:58AM 37.7881 -77.6783 25° Northeast 452 520 22,000 -3,780 Descending Washington Center
10:59AM 37.8914 -77.6178 25° Northeast 428 493 18,300 -3,540 Descending Washington Center
11:00AM 37.9881 -77.5600 25° Northeast 409 471 15,000 -3,540 Descending Washington Center
11:01AM 38.0725 -77.5094 25° Northeast 370 426 11,300 -2,520 Descending Washington Center
11:02AM 38.1631 -77.4536 26° Northeast 340 391 10,000 -660 Descending Washington Center
11:03AM 38.2386 -77.4106 24° Northeast 308 354 10,000 -300 Level Washington Center
11:04AM 38.2956 -77.3747 26° Northeast 263 303 9,400 -960 Descending Washington Center
11:05AM 38.3647 -77.3500 16° North 242 278 8,100 -1,260 Descending Washington Center
11:06AM 38.4314 -77.3569 355° North 234 269 6,900 -1,200 Descending Washington Center
11:07AM 38.5003 -77.3558 North 234 269 5,700 -900 Descending Washington Center
11:08AM 38.5628 -77.3600 357° North 239 275 5,100 -720 Descending Washington Center
11:09AM 38.6272 -77.3589 North 239 275 4,300 -600 Descending Washington Center
11:10AM 38.7000 -77.3667 355° North 238 274 4,000 -180 Descending Potomac TRACON
11:11AM 38.7667 -77.3500 11° North 241 277 4,000  Level Potomac TRACON
11:12AM 38.8333 -77.3500 360° North 242 278 4,000  Level Potomac TRACON
11:13AM 38.9000 -77.3500 360° North 222 255 4,000  Level Potomac TRACON
11:14AM 38.9500 -77.3500 360° North 225 259 4,000  Level Potomac TRACON
11:15AM 39.0167 -77.3500 360° North 226 260 4,000  Level Potomac TRACON
11:16AM 39.0833 -77.3500 360° North 224 258 4,000  Level Potomac TRACON
11:17AM 39.1333 -77.3500 360° North 222 255 4,000  Level Potomac TRACON
11:18AM 39.2000 -77.3500 360° North 221 254 4,000  Level Potomac TRACON
11:19AM 39.2667 -77.3333 11° North 223 257 4,000  Level Potomac TRACON
11:20AM 39.3167 -77.3333 360° North 222 255 4,000  Level Potomac TRACON
11:21AM 39.3500 -77.3833 311° West 201 231 4,000 -60 Level Potomac TRACON
11:22AM 39.3333 -77.4167 237° Southwest 179 206 3,900 -540 Descending Potomac TRACON
11:23AM 39.2833 -77.4333 194° South 161 185 3,000 -480 Descending Potomac TRACON
11:24AM 39.2500 -77.4333 180° South 161 185 3,000  Level Potomac TRACON
11:25AM 39.2000 -77.4333 180° South 158 182 3,000 -60 Level Potomac TRACON
11:26AM 39.1500 -77.4333 180° South 153 176 2,900 -300 Descending Potomac TRACON
11:27AM 39.1167 -77.4333 180° South 159 183 2,400 -480 Descending Potomac TRACON
11:28AM 39.0667 -77.4333 180° South 159 183 2,000 -420 Descending Potomac TRACON